Latest Weather Observations for Wagga Wagga

IDN60801

Issued at 2:33 pm EDT Tuesday 27 February 2024 (issued every 10 minutes, with the page automatically refreshed every 10 minutes)

About weather observations | Map of weather stations | Latest weather observations for NSW | Other Formats
Station Details ID: 072150 Name: WAGGA WAGGA AMO Lat: -35.16 Lon: 147.46 Height: 212.0 m
Data from the previous 72 hours. | See also: Recent months at Wagga Wagga
Date/Time
EDT
Temp
°C
App
Temp
°C
Dew
Point
°C
Rel
Hum
%
Delta-T
°C
Wind Press
QNH
hPa
Press
MSL
hPa
Rain since
9am
mm
Dir  Spd
km/h
Gust
km/h
Spd
kts
Gust
kts
27/02:30pm 31.3 29.2 13.6 34 10.7 NNE 17 32 9 17 1013.9 1012.9 0.0
27/02:00pm 31.3 29.3 14.0 35 10.6 NNE 17 28 9 15 1014.3 1013.2 0.0
27/01:30pm 31.5 30.1 15.5 38 10.0 N 17 26 9 14 1014.4 1013.3 0.0
27/01:00pm 30.4 29.4 14.5 38 9.7 NNE 13 22 7 12 1014.9 1013.9 0.0
27/12:30pm 29.2 27.3 14.2 40 9.1 NE 17 30 9 16 1015.2 1014.2 0.0
27/12:00pm 28.6 26.1 14.1 41 8.8 NE 20 30 11 16 1015.6 1014.6 0.0
27/11:30am 27.9 25.7 14.9 45 7.9 NNE 20 32 11 17 1016.1 1015.1 0.0
27/11:00am 26.2 22.5 14.0 47 7.3 ENE 26 32 14 17 1016.2 1015.2 0.0
27/10:30am 24.7 21.3 13.6 50 6.6 ENE 24 33 13 18 1016.5 1015.5 0.0
27/10:00am 23.0 19.5 13.5 55 5.6 ENE 24 32 13 17 1016.6 1015.6 0.0
27/09:30am 22.4 18.8 13.2 56 5.3 ENE 24 33 13 18 1016.7 1015.7 0.0
27/09:00am 21.9 17.6 13.3 58 5.0 ENE 28 35 15 19 1016.4 1015.4 0.0
27/08:30am 20.7 16.8 13.2 62 4.3 E 26 33 14 18 1016.4 1015.4 0.0
27/08:00am 20.2 16.6 12.9 63 4.2 ENE 24 33 13 18 1016.2 1015.2 0.0
27/07:30am 19.7 16.4 12.9 65 3.9 ENE 22 35 12 19 1016.1 1015.1 0.0
27/07:00am 19.3 16.0 12.8 66 3.7 ENE 22 32 12 17 1015.8 1014.8 0.0
27/06:30am 19.3 15.6 12.8 66 3.7 ENE 24 32 13 17 1015.3 1014.3 0.0
27/06:00am 19.6 16.9 12.8 65 3.9 ENE 19 28 10 15 1015.0 1014.0 0.0
27/05:30am 19.6 16.7 12.8 65 3.9 ENE 20 35 11 19 1014.8 1013.8 0.0
27/05:00am 19.6 17.2 12.8 65 3.9 NE 17 28 9 15 1014.8 1013.8 0.0
27/04:30am 19.8 16.8 12.6 63 4.1 E 20 28 11 15 1014.8 1013.8 0.0
27/04:00am 20.2 15.3 12.7 62 4.3 E 30 39 16 21 1014.5 1013.4 0.0
27/03:30am 20.4 15.6 12.9 62 4.3 ENE 30 41 16 22 1014.6 1013.5 0.0
27/03:00am 20.5 16.9 13.2 63 4.2 ENE 24 35 13 19 1014.9 1013.9 0.0
27/02:30am 20.7 19.3 14.4 67 3.7 ENE 15 20 8 11 1014.9 1013.9 0.0
27/02:00am 21.1 18.9 14.5 66 3.9 ENE 19 26 10 14 1014.9 1013.9 0.0
27/01:30am 21.5 19.4 14.6 65 4.1 ENE 19 28 10 15 1015.0 1014.0 0.0
27/01:00am 22.0 19.0 14.9 64 4.2 ENE 24 32 13 17 1014.8 1013.8 0.0
27/12:30am 23.0 20.9 15.1 61 4.7 ENE 20 28 11 15 1014.6 1013.5 0.0
27/12:00am 23.8 21.6 14.8 57 5.4 NE 20 28 11 15 1014.5 1013.4 0.0
 
Date/Time
EDT
Temp
°C
App
Temp
°C
Dew
Point
°C
Rel
Hum
%
Delta-T
°C
Wind Press
QNH
hPa
Press
MSL
hPa
Rain since
9am
mm
Dir  Spd
km/h
Gust
km/h
Spd
kts
Gust
kts
26/11:30pm 25.1 21.0 10.2 39 8.3 ENE 22 28 12 15 1013.8 1012.8 0.0
26/11:00pm 24.9 23.0 6.6 31 9.6 SW 6 7 3 4 1013.4 1012.4 0.0
26/10:30pm 24.7 22.5 6.0 30 9.7 SW 7 9 4 5 1013.5 1012.5 0.0
26/10:00pm 24.4 22.2 6.2 31 9.4 WSW 7 9 4 5 1013.3 1012.3 0.0
26/09:30pm 25.8 23.5 5.9 28 10.4 W 7 9 4 5 1013.1 1012.1 0.0
26/09:00pm 26.0 24.6 5.6 27 10.6 W 2 9 1 5 1012.8 1011.8 0.0
26/08:30pm 26.5 24.2 4.9 25 11.1 WSW 6 7 3 4 1012.5 1011.5 0.0
26/08:00pm 28.8 26.0 5.0 22 12.4 WSW 9 11 5 6 1012.2 1011.2 0.0
26/07:30pm 30.0 26.3 4.6 20 13.2 SW 13 15 7 8 1012.0 1011.0 0.0
26/07:00pm 32.4 28.3 4.2 17 14.8 W 15 19 8 10 1011.8 1010.8 0.0
26/06:30pm 33.0 29.3 4.7 17 15.0 WSW 13 17 7 9 1011.8 1010.8 0.0
26/06:00pm 34.2 30.4 3.9 15 16.0 WNW 13 20 7 11 1011.7 1010.7 0.0
26/05:30pm 34.5 28.8 3.1 14 16.4 W 22 32 12 17 1011.8 1010.8 0.0
26/05:00pm 34.1 28.8 1.8 13 16.5 W 19 28 10 15 1011.8 1010.8 0.0
26/04:30pm 34.5 29.6 2.1 13 16.7 WNW 17 30 9 16 1012.0 1011.0 0.0
26/04:00pm 34.8 29.9 2.3 13 16.8 SSW 17 24 9 13 1012.3 1011.3 0.0
26/03:30pm 34.5 30.4 4.1 15 16.1 WSW 15 24 8 13 1012.6 1011.6 0.0
26/03:00pm 34.8 30.7 4.4 15 16.2 SW 15 28 8 15 1013.0 1012.0 0.0
26/02:30pm 34.3 30.0 3.0 14 16.3 W 15 26 8 14 1013.4 1012.4 0.0
26/02:00pm 32.7 29.2 5.3 18 14.7 WNW 13 28 7 15 1013.6 1012.6 0.0
26/01:30pm 32.6 29.7 8.1 22 13.7 NNW 13 20 7 11 1013.9 1012.9 0.0
26/01:00pm 31.0 28.9 8.1 24 12.7 N 9 19 5 10 1014.5 1013.4 0.0
26/12:30pm 31.8 29.8 8.7 24 13.0 NW 9 19 5 10 1014.8 1013.8 0.0
26/12:00pm 30.2 28.8 9.7 28 11.6 NNE 7 11 4 6 1015.0 1014.0 0.0
26/11:30am 28.3 27.8 12.2 37 9.4 NNW 6 9 3 5 1015.4 1014.4 0.0
26/11:00am 26.9 25.9 12.2 40 8.6 N 9 11 5 6 1015.6 1014.6 0.0
26/10:30am 26.5 26.1 12.9 43 8.0 NE 7 11 4 6 1015.5 1014.5 0.0
26/10:00am 24.4 23.7 12.0 46 7.1 NE 7 11 4 6 1015.5 1014.5 0.0
26/09:30am 22.0 20.9 12.0 53 5.7 E 9 11 5 6 1015.4 1014.4 0.0
26/09:00am 21.0 19.8 11.6 55 5.3 E 9 11 5 6 1015.0 1014.0 0.0
26/08:30am 20.1 18.9 11.6 58 4.7 E 9 11 5 6 1014.6 1013.5 0.0
26/08:00am 19.0 18.7 11.6 62 4.1 E 4 11 2 6 1014.5 1013.4 0.0
26/07:30am 16.8 16.4 12.9 78 2.2 SSW 7 9 4 5 1014.3 1013.2 0.0
26/07:00am 16.3 16.8 11.5 73 2.6 CALM 0 0 0 0 1013.4 1012.4 0.0
26/06:30am 15.1 15.6 11.5 79 2.0 CALM 0 0 0 0 1013.4 1012.4 0.0
26/06:00am 15.8 15.6 10.6 71 2.8 ENE 2 9 1 5 1013.2 1012.2 0.0
26/05:30am 14.8 15.0 10.4 75 2.3 CALM 0 0 0 0 1013.0 1012.0 0.0
26/05:00am 16.0 16.4 11.2 73 2.6 CALM 0 0 0 0 1013.0 1012.0 0.0
26/04:30am 16.5 16.0 10.8 69 3.1 NE 4 7 2 4 1012.9 1011.9 0.0
26/04:00am 16.5 16.6 10.1 66 3.4 CALM 0 4 0 2 1012.7 1011.7 0.0
26/03:30am 16.5 16.7 10.4 67 3.3 CALM 0 0 0 0 1012.5 1011.5 0.0
26/03:00am 16.6 16.9 10.9 69 3.1 CALM 0 0 0 0 1012.6 1011.6 0.0
26/02:30am 17.3 17.7 11.1 67 3.4 CALM 0 0 0 0 1012.8 1011.8 0.0
26/02:00am 17.4 16.9 10.8 65 3.6 NW 4 9 2 5 1012.8 1011.8 0.0
26/01:30am 20.0 18.9 11.8 59 4.6 ENE 9 13 5 7 1012.7 1011.7 0.0
26/01:00am 19.6 19.1 10.6 56 4.9 WNW 4 13 2 7 1012.8 1011.8 0.0
26/12:30am 19.0 19.3 10.8 59 4.5 CALM 0 0 0 0 1012.9 1011.9 0.0
26/12:00am 21.0 21.1 10.2 50 5.9 CALM 0 0 0 0 1012.8 1011.8 0.0
 
Date/Time
EDT
Temp
°C
App
Temp
°C
Dew
Point
°C
Rel
Hum
%
Delta-T
°C
Wind Press
QNH
hPa
Press
MSL
hPa
Rain since
9am
mm
Dir  Spd
km/h
Gust
km/h
Spd
kts
Gust
kts
25/11:30pm 19.7 19.8 10.1 54 5.2 CALM 0 0 0 0 1013.0 1012.0 0.0
25/11:00pm 20.5 19.5 10.3 52 5.6 ENE 6 7 3 4 1013.1 1012.1 0.0
25/10:30pm 23.0 21.5 10.4 45 7.0 ENE 9 11 5 6 1012.9 1011.9 0.0
25/10:00pm 23.4 23.5 10.1 43 7.4 CALM 0 0 0 0 1013.1 1012.1 0.0
25/09:30pm 22.9 21.1 9.3 42 7.4 SSW 9 9 5 5 1013.0 1012.0 0.0
25/09:00pm 23.7 21.6 9.7 41 7.7 SSW 11 13 6 7 1012.8 1011.8 0.0
25/08:30pm 25.7 23.5 9.5 36 9.0 S 11 13 6 7 1012.7 1011.7 0.0
25/08:00pm 27.8 26.0 9.6 32 10.2 SW 9 11 5 6 1012.5 1011.5 0.0
25/07:30pm 30.2 27.9 9.1 27 11.9 SW 11 15 6 8 1012.3 1011.3 0.0
25/07:00pm 31.9 28.6 9.4 25 12.8 W 17 20 9 11 1012.0 1011.0 0.0
25/06:30pm 32.2 30.1 9.7 25 12.9 WNW 11 19 6 10 1011.9 1010.9 0.0
25/06:00pm 32.5 29.7 9.9 25 13.0 W 15 28 8 15 1011.8 1010.8 0.0
25/05:30pm 32.6 29.8 10.0 25 13.0 WNW 15 30 8 16 1012.1 1011.1 0.0
25/05:00pm 31.8 29.4 9.9 26 12.6 W 13 28 7 15 1012.2 1011.2 0.0
25/04:30pm 32.5 29.5 10.5 26 12.8 WSW 17 26 9 14 1012.5 1011.5 0.0
25/04:00pm 31.7 29.8 10.4 27 12.3 WNW 11 20 6 11 1012.7 1011.7 0.0
25/03:30pm 31.6 30.0 10.3 27 12.3 SW 9 20 5 11 1013.2 1012.2 0.0
25/03:00pm 31.6 29.0 11.9 30 11.7 WSW 17 26 9 14 1013.5 1012.5 0.0
25/02:30pm 30.6 28.6 11.5 30 11.2 SW 13 24 7 13 1014.2 1013.1 0.0
25/02:00pm 30.7 29.3 12.1 32 11.0 WSW 11 17 6 9 1014.6 1013.5 0.0
25/01:30pm 29.7 27.7 12.6 35 10.2 N 15 24 8 13 1015.0 1014.0 0.0
25/01:00pm 29.0 28.0 12.4 36 9.8 NNE 9 17 5 9 1015.5 1014.5 0.0
25/12:30pm 28.2 27.4 12.9 38 9.1 SE 9 19 5 10 1016.0 1015.0 0.0
25/12:00pm 26.8 26.3 12.8 42 8.2 ENE 7 17 4 9 1016.5 1015.5 0.0
25/11:30am 26.1 24.2 12.9 44 7.8 NE 15 24 8 13 1017.0 1016.0 0.0
25/11:00am 24.2 21.9 11.9 46 7.0 ENE 15 26 8 14 1017.5 1016.5 0.0
25/10:30am 23.3 21.1 12.0 49 6.5 ENE 15 22 8 12 1017.9 1016.9 0.0
25/10:00am 22.4 19.4 11.8 51 6.0 ENE 19 26 10 14 1018.0 1017.0 0.0
25/09:30am 21.0 18.2 11.3 54 5.4 E 17 24 9 13 1018.4 1017.4 0.0
25/09:00am 19.8 17.1 11.6 59 4.6 E 17 22 9 12 1018.5 1017.5 0.0
25/08:30am 18.9 17.9 12.2 65 3.8 E 9 11 5 6 1018.6 1017.6 0.0
25/08:00am 17.6 17.1 12.1 70 3.1 ESE 6 7 3 4 1018.3 1017.3 0.0
25/07:30am 14.2 14.7 11.5 84 1.5 CALM 0 0 0 0 1018.1 1017.1 0.0
25/07:00am 13.9 14.2 10.9 82 1.6 CALM 0 0 0 0 1017.8 1016.8 0.0
25/06:30am 13.5 13.8 11.0 85 1.3 CALM 0 0 0 0 1017.8 1016.8 0.0
25/06:00am 14.9 14.4 10.9 77 2.1 NNE 4 9 2 5 1017.5 1016.5 0.0
25/05:30am 15.9 15.0 11.5 75 2.4 NE 7 9 4 5 1017.2 1016.2 0.0
25/05:00am 16.0 14.8 11.6 75 2.4 ENE 9 13 5 7 1017.0 1016.0 0.0
25/04:30am 16.6 15.4 11.7 73 2.7 ENE 9 11 5 6 1017.0 1016.0 0.0
25/04:00am 17.0 17.6 11.9 72 2.8 CALM 0 4 0 2 1017.3 1016.3 0.0
25/03:30am 17.5 14.9 12.0 70 3.1 ENE 17 24 9 13 1016.9 1015.9 0.0
25/03:00am 17.8 14.9 12.3 70 3.1 ENE 19 26 10 14 1017.0 1016.0 0.0
25/02:30am 17.9 15.0 12.4 70 3.1 ENE 19 26 10 14 1017.3 1016.3 0.0
25/02:00am 18.3 15.3 12.5 69 3.3 ENE 20 28 11 15 1017.4 1016.4 0.0
25/01:30am 18.6 16.2 12.6 68 3.4 ENE 17 26 9 14 1017.7 1016.7 0.0
25/01:00am 18.8 17.2 12.8 68 3.4 ENE 13 17 7 9 1017.6 1016.6 0.0
25/12:30am 19.0 16.6 12.7 67 3.6 ENE 17 28 9 15 1017.4 1016.4 0.0
25/12:00am 19.5 17.5 12.8 65 3.8 ENE 15 30 8 16 1017.4 1016.4 0.0
 
Date/Time
EDT
Temp
°C
App
Temp
°C
Dew
Point
°C
Rel
Hum
%
Delta-T
°C
Wind Press
QNH
hPa
Press
MSL
hPa
Rain since
9am
mm
Dir  Spd
km/h
Gust
km/h
Spd
kts
Gust
kts
24/11:30pm 20.1 18.7 13.3 65 3.9 ENE 13 19 7 10 1017.4 1016.4 0.0
24/11:00pm 20.8 19.1 13.5 63 4.2 ENE 15 22 8 12 1017.1 1016.1 0.0
24/10:30pm 22.0 19.1 13.9 60 4.8 ENE 22 32 12 17 1016.8 1015.8 0.0
24/10:00pm 22.9 19.9 13.7 56 5.4 E 22 30 12 16 1016.4 1015.4 0.0
24/09:30pm 23.7 22.2 13.0 51 6.2 ENE 13 17 7 9 1016.0 1015.0 0.0
24/09:00pm 24.3 22.0 7.4 34 8.9 SE 9 24 5 13 1015.4 1014.4 0.0
24/08:30pm 23.2 21.7 6.9 35 8.5 E 4 6 2 3 1014.6 1013.5 0.0
24/08:00pm 26.9 25.0 6.9 28 10.7 ENE 6 7 3 4 1014.0 1013.0 0.0
24/07:30pm 28.9 26.7 6.3 24 12.1 E 7 9 4 5 1013.7 1012.7 0.0
24/07:00pm 30.0 27.5 4.6 20 13.3 E 7 11 4 6 1013.4 1012.4 0.0
24/06:30pm 30.2 27.3 4.8 20 13.3 SSE 9 13 5 7 1013.3 1012.3 0.0
24/06:00pm 30.7 28.3 5.2 20 13.5 SSW 7 9 4 5 1013.3 1012.3 0.0
24/05:30pm 30.6 28.1 3.6 18 13.9 SSE 6 9 3 5 1013.4 1012.4 0.0
24/05:00pm 31.1 28.9 6.2 21 13.4 S 7 15 4 8 1013.5 1012.5 0.0
24/04:30pm 30.7 28.1 7.8 24 12.6 WSW 11 19 6 10 1013.7 1012.7 0.0
24/04:00pm 30.5 27.3 7.0 23 12.8 S 13 22 7 12 1013.9 1012.9 0.0
24/03:30pm 30.2 27.3 8.0 25 12.3 SSW 13 24 7 13 1014.3 1013.2 0.0
24/03:00pm 28.7 27.1 8.9 29 11.0 NNE 7 11 4 6 1014.6 1013.5 0.0

Other formats

Comma delimited format used in spreadsheet applications
http://www.bom.gov.au/fwo/IDN60801/IDN60801.94910.axf

JavaScript Object Notation format (JSON) in row-major order
http://www.bom.gov.au/fwo/IDN60801/IDN60801.94910.json

Data quality

Most of these data are generated automatically and are frequently updated. Quality checks on data are not normally performed. It is possible for incorrect values to appear. Refer to information at About Latest Weather Observations and please check the disclaimer before using these data.